createdAt,value
2022-08-04T00:02:37.249Z,98584.05
2022-08-04T00:05:14.902Z,98586.79
2022-08-04T00:07:56.673Z,98581.73
2022-08-04T00:10:30.626Z,98578.86
2022-08-04T00:13:04.437Z,98578.59
2022-08-04T00:15:38.602Z,98580.77
2022-08-04T00:18:16.629Z,98576.54
2022-08-04T00:20:49.271Z,98578.27
2022-08-04T00:23:25.887Z,98579.77
2022-08-04T00:25:59.687Z,98578.96
2022-08-04T00:28:32.360Z,98581.05
2022-08-04T00:31:05.285Z,98581.65
2022-08-04T00:33:41.782Z,98580.94
2022-08-04T00:36:16.255Z,98583.80
2022-08-04T00:38:49.270Z,98588.19
2022-08-04T00:41:35.288Z,98588.98
2022-08-04T00:44:39.492Z,98588.44
2022-08-04T00:47:31.329Z,98585.63
2022-08-04T00:50:19.994Z,98587.57
2022-08-04T00:53:03.583Z,98586.15
2022-08-04T00:55:59.727Z,98582.89
2022-08-04T00:58:48.449Z,98579.95
2022-08-04T01:01:34.894Z,98579.41
2022-08-04T01:04:22.037Z,98579.63
2022-08-04T01:07:12.254Z,98582.73
2022-08-04T01:09:55.004Z,98583.27
2022-08-04T01:12:53.513Z,98580.23
2022-08-04T01:15:59.866Z,98582.77
2022-08-04T01:18:37.481Z,98584.87
2022-08-04T01:21:56.159Z,98583.52
2022-08-04T01:25:02.195Z,98584.99
2022-08-04T01:28:03.957Z,98582.92
2022-08-04T01:30:40.927Z,98584.96
2022-08-04T01:33:18.504Z,98585.88
2022-08-04T01:35:58.912Z,98583.76
2022-08-04T01:38:30.547Z,98579.59
2022-08-04T01:41:08.254Z,98577.70
2022-08-04T01:43:46.001Z,98575.33
2022-08-04T01:46:19.273Z,98578.56
2022-08-04T01:48:58.282Z,98579.10
2022-08-04T01:51:36.131Z,98574.69
2022-08-04T01:54:10.507Z,98577.30
2022-08-04T01:56:45.284Z,98578.92
2022-08-04T01:59:21.690Z,98575.89
2022-08-04T02:01:56.291Z,98574.04
2022-08-04T02:04:29.542Z,98573.27
2022-08-04T02:07:13.725Z,98567.02
2022-08-04T02:10:04.244Z,98565.64
2022-08-04T02:12:58.068Z,98561.99
2022-08-04T02:15:38.091Z,98566.59
2022-08-04T02:18:21.054Z,98571.17
2022-08-04T02:20:59.568Z,98572.30
2022-08-04T02:23:39.648Z,98575.70
2022-08-04T02:26:22.794Z,98571.52
2022-08-04T02:29:02.374Z,98572.68
2022-08-04T02:31:40.204Z,98569.29
2022-08-04T02:34:17.967Z,98569.04
2022-08-04T02:36:52.527Z,98569.58
2022-08-04T02:39:27.787Z,98567.16
2022-08-04T02:42:03.350Z,98563.30
2022-08-04T02:44:37.708Z,98562.36
2022-08-04T02:47:11.166Z,98560.55
2022-08-04T02:49:46.814Z,98556.44
2022-08-04T02:52:22.002Z,98557.67
2022-08-04T02:54:58.105Z,98564.38
2022-08-04T02:57:35.453Z,98562.65
2022-08-04T03:00:14.155Z,98560.01
2022-08-04T03:02:57.115Z,98565.15
2022-08-04T03:05:54.171Z,98562.98
2022-08-04T03:09:02.254Z,98564.74
2022-08-04T03:12:11.136Z,98563.10
2022-08-04T03:15:21.599Z,98565.69
2022-08-04T03:18:27.137Z,98560.13
2022-08-04T03:21:50.217Z,98558.19
2022-08-04T03:25:09.510Z,98559.98
2022-08-04T03:28:10.053Z,98561.70
2022-08-04T03:31:01.283Z,98571.20
2022-08-04T03:33:47.753Z,98568.06
2022-08-04T03:37:02.497Z,98569.45
2022-08-04T03:40:03.757Z,98567.62
2022-08-04T03:42:55.427Z,98574.40
2022-08-04T03:46:07.006Z,98571.30
2022-08-04T03:49:11.446Z,98570.16
2022-08-04T03:52:20.024Z,98577.95
2022-08-04T03:55:22.248Z,98576.20
2022-08-04T03:58:33.666Z,98575.92
2022-08-04T04:01:18.751Z,98575.32
2022-08-04T04:04:23.660Z,98574.26
2022-08-04T04:07:27.273Z,98578.64
2022-08-04T04:10:31.759Z,98579.39
2022-08-04T04:13:21.119Z,98580.44
2022-08-04T04:16:24.982Z,98581.31
2022-08-04T04:19:24.133Z,98583.26
2022-08-04T04:22:26.344Z,98578.77
2022-08-04T04:25:27.748Z,98581.60
2022-08-04T04:28:45.567Z,98584.51
2022-08-04T04:31:47.875Z,98584.30
2022-08-04T04:34:33.076Z,98586.52
2022-08-04T04:37:18.660Z,98583.71
2022-08-04T04:40:17.210Z,98583.46
2022-08-04T04:43:16.426Z,98581.50
2022-08-04T04:45:59.909Z,98583.65
2022-08-04T04:48:40.440Z,98587.85
2022-08-04T04:51:15.368Z,98590.82
2022-08-04T04:54:01.500Z,98594.70
2022-08-04T04:56:42.758Z,98593.52
2022-08-04T04:59:22.490Z,98595.02
2022-08-04T05:02:22.136Z,98591.56
2022-08-04T05:05:12.521Z,98594.30
2022-08-04T05:07:58.562Z,98595.10
2022-08-04T05:10:47.772Z,98594.27
2022-08-04T05:14:34.477Z,98596.42
2022-08-04T05:16:41.772Z,98598.19
2022-08-04T05:19:24.103Z,98597.59
2022-08-04T05:22:14.170Z,98594.25
2022-08-04T05:24:50.882Z,98593.45
2022-08-04T05:27:39.466Z,98590.61
2022-08-04T05:30:14.011Z,98585.55
2022-08-04T05:32:51.827Z,98585.85
2022-08-04T05:36:20.766Z,98584.86
2022-08-04T05:38:39.659Z,98583.80
2022-08-04T05:41:12.973Z,98586.98
2022-08-04T05:43:47.220Z,98587.55
2022-08-04T05:46:20.789Z,98586.27
2022-08-04T05:48:54.665Z,98589.46
2022-08-04T05:51:30.993Z,98589.02
2022-08-04T05:54:04.057Z,98592.29
2022-08-04T05:56:38.984Z,98597.10
2022-08-04T05:59:13.952Z,98598.39
2022-08-04T06:01:56.716Z,98602.47
2022-08-04T06:04:35.291Z,98595.98
2022-08-04T06:07:08.343Z,98597.14
2022-08-04T06:09:41.229Z,98599.16
2022-08-04T06:12:17.291Z,98600.85
2022-08-04T06:14:53.081Z,98599.02
2022-08-04T06:18:33.110Z,98595.25
2022-08-04T06:20:32.822Z,98596.58
2022-08-04T06:23:09.975Z,98598.02
2022-08-04T06:25:58.779Z,98597.42
2022-08-04T06:28:32.900Z,98596.23
2022-08-04T06:32:30.565Z,98596.57
2022-08-04T06:34:04.348Z,98596.88
2022-08-04T06:36:41.109Z,98590.59
2022-08-04T06:39:14.623Z,98594.99
2022-08-04T06:41:55.302Z,98593.77
2022-08-04T06:44:42.644Z,98590.43
2022-08-04T06:47:19.691Z,98590.35
2022-08-04T06:51:29.205Z,98593.49
2022-08-04T06:52:48.554Z,98596.89
2022-08-04T06:55:22.292Z,98592.89
2022-08-04T06:58:00.901Z,98595.10
2022-08-04T07:00:36.819Z,98594.41
2022-08-04T07:03:09.512Z,98594.25
2022-08-04T07:05:42.932Z,98594.29
2022-08-04T07:08:16.702Z,98596.58
2022-08-04T07:10:49.938Z,98594.48
2022-08-04T07:13:24.648Z,98590.20
2022-08-04T07:15:58.850Z,98590.73
2022-08-04T07:18:34.261Z,98589.61
2022-08-04T07:21:07.982Z,98590.83
2022-08-04T07:23:40.511Z,98589.94
2022-08-04T07:26:17.083Z,98587.11
2022-08-04T07:28:53.383Z,98587.27
2022-08-04T07:31:34.572Z,98586.14
2022-08-04T07:34:16.755Z,98588.66
2022-08-04T07:36:56.014Z,98589.45
2022-08-04T07:39:47.686Z,98589.52
2022-08-04T07:42:23.573Z,98593.05
2022-08-04T07:44:56.349Z,98586.91
2022-08-04T07:47:29.267Z,98592.08
2022-08-04T07:50:01.875Z,98590.40
2022-08-04T07:52:39.556Z,98581.69
2022-08-04T07:55:12.955Z,98576.02
2022-08-04T07:57:48.569Z,98577.35
2022-08-04T08:00:21.166Z,98582.39
2022-08-04T08:02:56.124Z,98574.43
2022-08-04T08:05:30.231Z,98577.50
2022-08-04T08:08:02.815Z,98567.60
2022-08-04T08:10:35.002Z,98562.55
2022-08-04T08:13:08.367Z,98567.67
2022-08-04T08:15:41.611Z,98570.00
2022-08-04T08:18:15.260Z,98565.81
2022-08-04T08:20:48.945Z,98562.30
2022-08-04T08:23:21.779Z,98564.98
2022-08-04T08:25:55.185Z,98561.76
2022-08-04T08:28:27.730Z,98562.70
2022-08-04T08:31:00.296Z,98554.19
2022-08-04T08:33:33.689Z,98551.11
2022-08-04T08:36:14.394Z,98545.79
2022-08-04T08:38:51.550Z,98545.43
2022-08-04T08:41:54.336Z,98541.40
2022-08-04T08:44:58.262Z,98539.71
2022-08-04T08:48:04.933Z,98540.58
2022-08-04T08:51:06.171Z,98548.02
2022-08-04T08:54:00.330Z,98541.25
2022-08-04T08:56:40.742Z,98550.54
2022-08-04T08:59:31.671Z,98552.02
2022-08-04T09:02:27.939Z,98548.27
2022-08-04T09:05:23.581Z,98544.06
2022-08-04T09:08:16.657Z,98543.38
2022-08-04T09:10:52.374Z,98544.15
2022-08-04T09:13:31.168Z,98537.54
2022-08-04T09:16:10.127Z,98544.60
2022-08-04T09:18:48.175Z,98539.23
2022-08-04T09:21:32.209Z,98547.31
2022-08-04T09:24:35.165Z,98541.88
2022-08-04T09:27:09.725Z,98531.23
2022-08-04T09:29:48.344Z,98535.93
2022-08-04T09:32:34.749Z,98533.29
2022-08-04T09:35:20.337Z,98519.14
2022-08-04T09:38:03.875Z,98509.13
2022-08-04T09:40:55.084Z,98513.48
2022-08-04T09:43:59.218Z,98518.45
2022-08-04T09:46:48.657Z,98518.83
2022-08-04T09:49:24.347Z,98510.02
2022-08-04T09:52:09.088Z,98501.77
2022-08-04T09:55:00.848Z,98496.44
2022-08-04T09:57:47.115Z,98491.51
2022-08-04T10:00:20.923Z,98496.59
2022-08-04T10:03:20.193Z,98490.02
2022-08-04T10:06:08.040Z,98491.64
2022-08-04T10:09:10.147Z,98496.30
2022-08-04T10:11:56.947Z,98498.23
2022-08-04T10:14:41.895Z,98502.08
2022-08-04T10:17:27.504Z,98494.89
2022-08-04T10:20:09.813Z,98493.38
2022-08-04T10:23:10.648Z,98482.52
2022-08-04T10:26:05.709Z,98489.48
2022-08-04T10:28:51.145Z,98485.73
2022-08-04T10:31:31.786Z,98485.30
2022-08-04T10:34:13.079Z,98476.98
2022-08-04T10:36:54.850Z,98478.13
2022-08-04T10:39:41.872Z,98476.73
2022-08-04T10:42:28.930Z,98469.14
2022-08-04T10:45:11.553Z,98473.71
2022-08-04T10:47:53.497Z,98477.61
2022-08-04T10:50:28.656Z,98471.23
2022-08-04T10:53:09.717Z,98471.21
2022-08-04T10:56:07.847Z,98471.67
2022-08-04T10:58:47.490Z,98473.08
2022-08-04T11:02:02.110Z,98470.77
2022-08-04T11:04:29.302Z,98471.63
2022-08-04T11:07:05.732Z,98471.66
2022-08-04T11:09:38.336Z,98473.91
2022-08-04T11:12:17.834Z,98466.85
2022-08-04T11:14:57.319Z,98463.49
2022-08-04T11:17:34.850Z,98466.81
2022-08-04T11:20:34.750Z,98467.92
2022-08-04T11:23:11.387Z,98452.45
2022-08-04T11:26:07.731Z,98456.02
2022-08-04T11:28:59.388Z,98465.73
2022-08-04T11:31:41.820Z,98461.90
2022-08-04T11:34:21.641Z,98454.29
2022-08-04T11:37:14.102Z,98457.66
2022-08-04T11:39:51.463Z,98451.65
2022-08-04T11:42:28.752Z,98463.06
2022-08-04T11:45:05.404Z,98454.48
2022-08-04T11:47:50.677Z,98446.25
2022-08-04T11:50:30.519Z,98444.05
2022-08-04T11:53:03.799Z,98444.41
2022-08-04T11:56:07.119Z,98447.36
2022-08-04T11:58:33.887Z,98436.72
2022-08-04T12:01:19.923Z,98445.90
2022-08-04T12:04:04.991Z,98449.98
2022-08-04T12:06:56.993Z,98439.81
2022-08-04T12:09:50.883Z,98440.65
2022-08-04T12:12:28.557Z,98442.54
2022-08-04T12:15:10.556Z,98445.50
2022-08-04T12:17:52.925Z,98444.00
2022-08-04T12:20:38.478Z,98431.12
2022-08-04T12:23:34.081Z,98427.90
2022-08-04T12:26:10.691Z,98426.60
2022-08-04T12:31:47.191Z,98424.20
2022-08-04T12:34:29.883Z,98418.80
2022-08-04T12:37:12.984Z,98408.90
2022-08-04T12:40:21.707Z,98417.45
2022-08-04T12:42:59.704Z,98415.73
2022-08-04T12:45:34.052Z,98405.92
2022-08-04T12:48:10.681Z,98408.11
2022-08-04T12:50:43.616Z,98406.20
2022-08-04T12:53:31.570Z,98407.83
2022-08-04T12:56:07.826Z,98384.69
2022-08-04T12:58:44.173Z,98380.91
2022-08-04T13:02:09.581Z,98385.45
2022-08-04T13:04:17.533Z,98381.41
2022-08-04T13:06:59.794Z,98382.05
2022-08-04T13:09:35.830Z,98378.42
2022-08-04T13:12:15.659Z,98374.28
2022-08-04T13:14:55.247Z,98366.48
2022-08-04T13:17:57.306Z,98367.18
2022-08-04T13:20:34.030Z,98367.04
2022-08-04T13:23:11.988Z,98364.95
2022-08-04T13:26:43.430Z,98362.42
2022-08-04T13:28:43.475Z,98367.36
2022-08-04T13:31:22.495Z,98362.08
2022-08-04T13:34:05.329Z,98359.45
2022-08-04T13:36:44.277Z,98360.96
2022-08-04T13:39:21.332Z,98362.34
2022-08-04T13:41:58.991Z,98365.11
2022-08-04T13:44:35.742Z,98355.39
2022-08-04T13:47:14.703Z,98357.21
2022-08-04T13:50:16.584Z,98356.77
2022-08-04T13:52:52.886Z,98358.45
2022-08-04T13:55:33.117Z,98356.34
2022-08-04T13:58:11.632Z,98355.60
2022-08-04T14:00:53.181Z,98345.19
2022-08-04T14:03:33.600Z,98340.84
2022-08-04T14:06:30.070Z,98339.86
2022-08-04T14:09:13.285Z,98337.70
2022-08-04T14:12:09.176Z,98333.17
2022-08-04T14:14:50.237Z,98329.55
2022-08-04T14:17:30.327Z,98328.23
2022-08-04T14:20:05.187Z,98334.30
2022-08-04T14:22:40.415Z,98330.91
2022-08-04T14:25:17.115Z,98332.98
2022-08-04T14:27:51.917Z,98321.92
2022-08-04T14:30:30.992Z,98319.79
2022-08-04T14:34:01.877Z,98319.35
2022-08-04T14:36:04.505Z,98317.48
2022-08-04T14:38:56.425Z,98309.14
2022-08-04T14:41:45.988Z,98298.91
2022-08-04T14:44:21.155Z,98302.16
2022-08-04T14:47:02.360Z,98303.77
2022-08-04T14:49:34.698Z,98297.27
2022-08-04T14:52:07.336Z,98297.64
2022-08-04T14:54:39.673Z,98293.52
2022-08-04T14:57:11.987Z,98287.64
2022-08-04T15:00:00.618Z,98293.55
2022-08-04T15:02:36.284Z,98292.13
2022-08-04T15:05:55.388Z,98296.40
2022-08-04T15:08:02.629Z,98287.62
2022-08-04T15:10:36.028Z,98287.10
2022-08-04T15:13:12.584Z,98279.11
2022-08-04T15:16:07.940Z,98288.16
2022-08-04T15:18:43.798Z,98298.36
2022-08-04T15:21:29.836Z,98301.82
2022-08-04T15:24:05.000Z,98293.48
2022-08-04T15:26:43.439Z,98296.09
2022-08-04T15:29:18.552Z,98294.88
2022-08-04T15:32:05.592Z,98290.45
2022-08-04T15:34:52.119Z,98289.86
2022-08-04T15:37:30.542Z,98291.91
2022-08-04T15:40:10.256Z,98289.73
2022-08-04T15:42:49.145Z,98278.21
2022-08-04T15:46:02.374Z,98275.93
2022-08-04T15:48:35.073Z,98273.73
2022-08-04T15:51:16.940Z,98265.63
2022-08-04T15:54:28.077Z,98265.31
2022-08-04T15:57:05.211Z,98273.66
2022-08-04T16:00:00.098Z,98273.71
2022-08-04T16:02:47.110Z,98284.09
2022-08-04T16:05:39.631Z,98287.00
2022-08-04T16:08:20.785Z,98285.06
2022-08-04T16:10:54.061Z,98286.06
2022-08-04T16:13:27.042Z,98279.20
2022-08-04T16:16:03.664Z,98282.34
2022-08-04T16:18:45.024Z,98281.24
2022-08-04T16:21:27.790Z,98281.80
2022-08-04T16:24:22.078Z,98281.05
2022-08-04T16:27:00.462Z,98294.36
2022-08-04T16:29:41.379Z,98295.66
2022-08-04T16:32:23.228Z,98300.08
2022-08-04T16:35:04.891Z,98304.65
2022-08-04T16:37:39.198Z,98309.11
2022-08-04T16:40:39.513Z,98308.70
2022-08-04T16:43:16.175Z,98315.40
2022-08-04T16:45:55.368Z,98326.88
2022-08-04T16:48:29.127Z,98334.59
2022-08-04T16:51:06.828Z,98336.88
2022-08-04T16:54:03.873Z,98345.71
2022-08-04T16:56:35.704Z,98351.23
2022-08-04T16:59:13.480Z,98352.31
2022-08-04T17:01:51.702Z,98348.54
2022-08-04T17:04:31.109Z,98347.02
2022-08-04T17:07:04.854Z,98349.23
2022-08-04T17:09:37.456Z,98351.71
2022-08-04T17:12:10.334Z,98355.13
2022-08-04T17:14:45.107Z,98361.25
2022-08-04T17:17:23.889Z,98365.29
2022-08-04T17:20:01.466Z,98358.38
2022-08-04T17:22:33.711Z,98368.63
2022-08-04T17:25:09.662Z,98371.69
2022-08-04T17:28:19.918Z,98381.29
2022-08-04T17:30:36.277Z,98388.52
2022-08-04T17:33:14.993Z,98393.00
2022-08-04T17:35:48.333Z,98389.83
2022-08-04T17:38:20.945Z,98391.97
2022-08-04T17:41:00.522Z,98391.73
2022-08-04T17:44:03.392Z,98397.91
2022-08-04T17:46:42.035Z,98396.98
2022-08-04T17:49:23.229Z,98400.33
2022-08-04T17:52:04.271Z,98400.95
2022-08-04T17:54:45.461Z,98403.02
2022-08-04T17:57:21.625Z,98403.09
2022-08-04T17:59:59.301Z,98408.05
2022-08-04T18:02:35.033Z,98410.35
2022-08-04T18:05:11.503Z,98415.43
2022-08-04T18:08:39.906Z,98420.06
2022-08-04T18:10:55.710Z,98416.19
2022-08-04T18:13:29.923Z,98420.59
2022-08-04T18:16:21.972Z,98427.48
2022-08-04T18:19:15.719Z,98430.16
2022-08-04T18:21:59.371Z,98433.39
2022-08-04T18:24:55.654Z,98438.66
2022-08-04T18:27:29.951Z,98437.00
2022-08-04T18:30:31.164Z,98435.31
2022-08-04T18:33:24.409Z,98436.72
2022-08-04T18:36:34.826Z,98442.85
2022-08-04T18:42:01.029Z,98447.02
2022-08-04T18:44:29.479Z,98450.28
2022-08-04T18:47:22.296Z,98448.05
2022-08-04T18:50:58.600Z,98449.73
2022-08-04T18:52:53.010Z,98454.50
2022-08-04T18:55:55.888Z,98454.46
2022-08-04T18:58:27.421Z,98458.90
2022-08-04T19:01:01.307Z,98460.09
2022-08-04T19:03:33.887Z,98461.08
2022-08-04T19:06:08.982Z,98457.57
2022-08-04T19:08:42.317Z,98458.34
2022-08-04T19:11:37.287Z,98458.64
2022-08-04T19:14:07.798Z,98452.46
2022-08-04T19:16:47.256Z,98456.66
2022-08-04T19:19:20.148Z,98462.16
2022-08-04T19:22:00.953Z,98458.13
2022-08-04T19:24:35.373Z,98464.25
2022-08-04T19:27:13.318Z,98454.62
2022-08-04T19:29:49.359Z,98457.82
2022-08-04T19:32:22.785Z,98458.44
2022-08-04T19:34:56.199Z,98458.42
2022-08-04T19:38:01.941Z,98462.46
2022-08-04T19:40:33.892Z,98461.95
2022-08-04T19:43:15.012Z,98463.96
2022-08-04T19:45:49.544Z,98466.27
2022-08-04T19:48:23.787Z,98470.09
2022-08-04T19:50:58.972Z,98467.62
2022-08-04T19:53:36.988Z,98470.02
2022-08-04T19:56:10.346Z,98478.66
2022-08-04T19:58:42.721Z,98477.10
2022-08-04T20:01:33.381Z,98473.35
2022-08-04T20:04:11.613Z,98477.29
2022-08-04T20:06:45.574Z,98475.06
2022-08-04T20:09:24.879Z,98471.34
2022-08-04T20:12:00.143Z,98468.31
2022-08-04T20:14:33.465Z,98468.20
2022-08-04T20:17:10.566Z,98469.82
2022-08-04T20:19:51.064Z,98469.45
2022-08-04T20:22:51.770Z,98465.98
2022-08-04T20:25:36.367Z,98466.06
2022-08-04T20:28:36.259Z,98467.27
2022-08-04T20:31:04.483Z,98464.59
2022-08-04T20:33:37.241Z,98464.57
2022-08-04T20:36:10.165Z,98460.70
2022-08-04T20:38:46.518Z,98459.41
2022-08-04T20:41:21.636Z,98455.13
2022-08-04T20:43:56.218Z,98455.20
2022-08-04T20:46:29.979Z,98456.27
2022-08-04T20:49:03.643Z,98451.90
2022-08-04T20:51:39.829Z,98457.33
2022-08-04T20:57:07.125Z,98452.94
2022-08-04T20:59:41.615Z,98448.42
2022-08-04T21:02:16.485Z,98453.11
2022-08-04T21:04:50.638Z,98453.30
2022-08-04T21:07:24.332Z,98453.20
2022-08-04T21:09:57.506Z,98454.20
2022-08-04T21:12:30.038Z,98453.27
2022-08-04T21:15:13.521Z,98457.05
2022-08-04T21:17:56.750Z,98457.06
2022-08-04T21:20:32.460Z,98455.21
2022-08-04T21:23:07.395Z,98454.34
2022-08-04T21:25:43.801Z,98457.56
2022-08-04T21:28:20.435Z,98454.15
2022-08-04T21:30:54.915Z,98450.94
2022-08-04T21:33:50.674Z,98447.47
2022-08-04T21:36:22.534Z,98452.33
2022-08-04T21:39:00.661Z,98452.89
2022-08-04T21:41:44.576Z,98452.44
2022-08-04T21:44:26.048Z,98453.64
2022-08-04T21:46:59.976Z,98454.47
2022-08-04T21:49:32.809Z,98453.12
2022-08-04T21:52:08.340Z,98452.59
2022-08-04T21:54:42.879Z,98447.30
2022-08-04T21:57:17.248Z,98446.09
2022-08-04T21:59:55.130Z,98449.02
2022-08-04T22:02:27.579Z,98447.02
2022-08-04T22:04:59.851Z,98447.04
2022-08-04T22:07:50.350Z,98447.13
2022-08-04T22:10:32.604Z,98445.80
2022-08-04T22:13:07.768Z,98445.48
2022-08-04T22:16:03.589Z,98443.74
2022-08-04T22:21:25.603Z,98437.27
2022-08-04T22:24:00.702Z,98440.95
2022-08-04T22:26:35.131Z,98442.34
2022-08-04T22:29:07.431Z,98442.48
2022-08-04T22:31:53.253Z,98437.04
2022-08-04T22:34:30.524Z,98440.55
2022-08-04T22:37:15.723Z,98440.14
2022-08-04T22:39:56.769Z,98436.27
2022-08-04T22:42:29.538Z,98441.99
2022-08-04T22:45:04.251Z,98439.48
2022-08-04T22:47:40.697Z,98441.80
2022-08-04T22:50:26.793Z,98436.16
2022-08-04T22:52:59.690Z,98436.54
2022-08-04T22:56:06.407Z,98433.77
2022-08-04T22:58:28.826Z,98432.49
2022-08-04T23:01:01.519Z,98431.33
2022-08-04T23:03:38.396Z,98426.63
2022-08-04T23:06:12.450Z,98424.10
2022-08-04T23:08:46.471Z,98420.13
2022-08-04T23:11:20.827Z,98419.36
2022-08-04T23:13:53.036Z,98418.31
2022-08-04T23:16:25.496Z,98415.34
2022-08-04T23:19:00.782Z,98419.98
2022-08-04T23:21:47.686Z,98414.41
2022-08-04T23:24:33.263Z,98409.55
2022-08-04T23:27:05.604Z,98409.58
2022-08-04T23:29:54.391Z,98406.30
2022-08-04T23:32:27.924Z,98406.64
2022-08-04T23:35:02.718Z,98402.96
2022-08-04T23:37:36.797Z,98401.08
2022-08-04T23:40:33.475Z,98397.28
2022-08-04T23:43:12.302Z,98396.86
2022-08-04T23:46:04.526Z,98397.96
2022-08-04T23:48:42.052Z,98393.30
2022-08-04T23:51:16.246Z,98396.11
2022-08-04T23:54:03.637Z,98398.15
2022-08-04T23:56:38.081Z,98400.20
2022-08-04T23:59:18.060Z,98394.45
